sensor_id;sensor_type;location;lat;lon;timestamp;temperature;humidity
674;DHT22;319;48.764;9.174;2023-04-22T00:01:28;14.70;99.40
674;DHT22;319;48.764;9.174;2023-04-22T00:03:55;14.60;99.20
674;DHT22;319;48.764;9.174;2023-04-22T00:06:22;14.60;99.30
674;DHT22;319;48.764;9.174;2023-04-22T00:08:48;14.60;99.20
674;DHT22;319;48.764;9.174;2023-04-22T00:11:20;14.60;99.30
674;DHT22;319;48.764;9.174;2023-04-22T00:13:47;14.60;99.30
674;DHT22;319;48.764;9.174;2023-04-22T00:16:14;14.60;99.30
674;DHT22;319;48.764;9.174;2023-04-22T00:18:41;14.60;99.40
674;DHT22;319;48.764;9.174;2023-04-22T00:21:08;14.60;99.40
674;DHT22;319;48.764;9.174;2023-04-22T00:23:35;14.60;99.40
674;DHT22;319;48.764;9.174;2023-04-22T00:26:01;14.60;99.40
674;DHT22;319;48.764;9.174;2023-04-22T00:28:30;14.60;99.50
674;DHT22;319;48.764;9.174;2023-04-22T00:30:57;14.50;99.70
674;DHT22;319;48.764;9.174;2023-04-22T00:33:24;14.50;99.70
674;DHT22;319;48.764;9.174;2023-04-22T00:35:51;14.50;99.80
674;DHT22;319;48.764;9.174;2023-04-22T00:38:19;14.50;99.90
674;DHT22;319;48.764;9.174;2023-04-22T00:40:46;14.40;99.90
674;DHT22;319;48.764;9.174;2023-04-22T00:43:14;14.50;99.90
674;DHT22;319;48.764;9.174;2023-04-22T00:45:43;14.40;99.90
674;DHT22;319;48.764;9.174;2023-04-22T00:48:12;14.40;99.90
674;DHT22;319;48.764;9.174;2023-04-22T00:50:39;14.40;99.90
674;DHT22;319;48.764;9.174;2023-04-22T00:53:06;14.40;99.90
674;DHT22;319;48.764;9.174;2023-04-22T00:55:33;14.40;99.90
674;DHT22;319;48.764;9.174;2023-04-22T00:58:01;14.30;99.90
674;DHT22;319;48.764;9.174;2023-04-22T01:00:29;14.30;99.90
674;DHT22;319;48.764;9.174;2023-04-22T01:02:57;14.30;99.90
674;DHT22;319;48.764;9.174;2023-04-22T01:05:24;14.30;99.90
674;DHT22;319;48.764;9.174;2023-04-22T01:07:51;14.30;99.90
674;DHT22;319;48.764;9.174;2023-04-22T01:10:18;14.30;99.90
674;DHT22;319;48.764;9.174;2023-04-22T01:12:45;14.30;99.90
674;DHT22;319;48.764;9.174;2023-04-22T01:15:12;14.30;99.90
674;DHT22;319;48.764;9.174;2023-04-22T01:17:39;14.30;99.90
674;DHT22;319;48.764;9.174;2023-04-22T01:20:08;14.30;99.90
674;DHT22;319;48.764;9.174;2023-04-22T01:22:39;14.30;99.90
674;DHT22;319;48.764;9.174;2023-04-22T01:25:09;14.30;99.90
674;DHT22;319;48.764;9.174;2023-04-22T01:27:36;14.20;99.90
674;DHT22;319;48.764;9.174;2023-04-22T01:30:05;14.30;99.90
674;DHT22;319;48.764;9.174;2023-04-22T01:32:32;14.30;99.90
674;DHT22;319;48.764;9.174;2023-04-22T01:35:00;14.30;99.90
674;DHT22;319;48.764;9.174;2023-04-22T01:37:28;14.20;99.90
674;DHT22;319;48.764;9.174;2023-04-22T01:39:56;14.20;99.90
674;DHT22;319;48.764;9.174;2023-04-22T01:42:25;14.20;99.90
674;DHT22;319;48.764;9.174;2023-04-22T01:44:52;14.20;99.90
674;DHT22;319;48.764;9.174;2023-04-22T01:47:19;14.10;99.90
674;DHT22;319;48.764;9.174;2023-04-22T01:49:45;14.10;99.90
674;DHT22;319;48.764;9.174;2023-04-22T01:52:12;14.10;99.90
674;DHT22;319;48.764;9.174;2023-04-22T01:54:42;14.10;99.90
674;DHT22;319;48.764;9.174;2023-04-22T01:57:10;14.10;99.90
674;DHT22;319;48.764;9.174;2023-04-22T01:59:40;14.10;99.90
674;DHT22;319;48.764;9.174;2023-04-22T02:02:06;14.10;99.90
674;DHT22;319;48.764;9.174;2023-04-22T02:04:33;14.10;99.90
674;DHT22;319;48.764;9.174;2023-04-22T02:07:00;14.10;99.90
674;DHT22;319;48.764;9.174;2023-04-22T02:09:27;14.10;99.90
674;DHT22;319;48.764;9.174;2023-04-22T02:11:54;14.10;99.90
674;DHT22;319;48.764;9.174;2023-04-22T02:14:21;14.00;99.90
674;DHT22;319;48.764;9.174;2023-04-22T02:16:49;14.00;99.90
674;DHT22;319;48.764;9.174;2023-04-22T02:19:17;14.00;99.90
674;DHT22;319;48.764;9.174;2023-04-22T02:21:44;14.00;99.90
674;DHT22;319;48.764;9.174;2023-04-22T02:24:11;14.00;99.90
674;DHT22;319;48.764;9.174;2023-04-22T02:26:38;14.00;99.90
674;DHT22;319;48.764;9.174;2023-04-22T02:29:06;13.90;99.90
674;DHT22;319;48.764;9.174;2023-04-22T02:31:33;13.90;99.90
674;DHT22;319;48.764;9.174;2023-04-22T02:34:01;13.90;99.90
674;DHT22;319;48.764;9.174;2023-04-22T02:36:28;13.90;99.90
674;DHT22;319;48.764;9.174;2023-04-22T02:38:56;13.90;99.90
674;DHT22;319;48.764;9.174;2023-04-22T02:41:23;13.80;99.90
674;DHT22;319;48.764;9.174;2023-04-22T02:43:50;13.80;99.90
674;DHT22;319;48.764;9.174;2023-04-22T02:46:17;13.80;99.90
674;DHT22;319;48.764;9.174;2023-04-22T02:48:44;13.80;99.90
674;DHT22;319;48.764;9.174;2023-04-22T02:51:12;13.70;99.90
674;DHT22;319;48.764;9.174;2023-04-22T02:53:39;13.70;99.90
674;DHT22;319;48.764;9.174;2023-04-22T02:56:06;13.70;99.90
674;DHT22;319;48.764;9.174;2023-04-22T02:58:34;13.70;99.90
674;DHT22;319;48.764;9.174;2023-04-22T03:01:01;13.70;99.90
674;DHT22;319;48.764;9.174;2023-04-22T03:03:27;13.70;99.90
674;DHT22;319;48.764;9.174;2023-04-22T03:05:54;13.70;99.90
674;DHT22;319;48.764;9.174;2023-04-22T03:08:23;13.70;99.90
674;DHT22;319;48.764;9.174;2023-04-22T03:10:50;13.70;99.90
674;DHT22;319;48.764;9.174;2023-04-22T03:13:17;13.70;99.90
674;DHT22;319;48.764;9.174;2023-04-22T03:15:44;13.50;99.90
674;DHT22;319;48.764;9.174;2023-04-22T03:18:11;13.50;99.90
674;DHT22;319;48.764;9.174;2023-04-22T03:20:38;13.40;99.90
674;DHT22;319;48.764;9.174;2023-04-22T03:23:05;13.40;99.90
674;DHT22;319;48.764;9.174;2023-04-22T03:25:34;13.30;99.90
674;DHT22;319;48.764;9.174;2023-04-22T03:28:01;13.30;99.90
674;DHT22;319;48.764;9.174;2023-04-22T03:30:28;13.30;99.90
674;DHT22;319;48.764;9.174;2023-04-22T03:32:58;13.30;99.90
674;DHT22;319;48.764;9.174;2023-04-22T03:35:25;13.20;99.90
674;DHT22;319;48.764;9.174;2023-04-22T03:37:53;13.20;99.90
674;DHT22;319;48.764;9.174;2023-04-22T03:40:20;13.20;99.90
674;DHT22;319;48.764;9.174;2023-04-22T03:42:48;13.10;99.90
674;DHT22;319;48.764;9.174;2023-04-22T03:45:15;13.10;99.90
674;DHT22;319;48.764;9.174;2023-04-22T03:47:42;13.10;99.90
674;DHT22;319;48.764;9.174;2023-04-22T03:50:09;13.10;99.90
674;DHT22;319;48.764;9.174;2023-04-22T03:52:36;13.00;99.90
674;DHT22;319;48.764;9.174;2023-04-22T03:55:04;13.00;99.90
674;DHT22;319;48.764;9.174;2023-04-22T03:57:31;13.00;99.90
674;DHT22;319;48.764;9.174;2023-04-22T03:59:59;12.80;99.90
674;DHT22;319;48.764;9.174;2023-04-22T04:02:26;12.80;99.90
674;DHT22;319;48.764;9.174;2023-04-22T04:04:53;12.90;99.90
674;DHT22;319;48.764;9.174;2023-04-22T04:07:19;12.90;99.90
674;DHT22;319;48.764;9.174;2023-04-22T04:09:46;12.80;99.90
674;DHT22;319;48.764;9.174;2023-04-22T04:12:13;12.90;99.90
674;DHT22;319;48.764;9.174;2023-04-22T04:14:40;12.90;99.90
674;DHT22;319;48.764;9.174;2023-04-22T04:17:08;12.80;99.90
674;DHT22;319;48.764;9.174;2023-04-22T04:19:35;12.80;99.90
674;DHT22;319;48.764;9.174;2023-04-22T04:22:02;12.80;99.90
674;DHT22;319;48.764;9.174;2023-04-22T04:24:29;12.80;99.90
674;DHT22;319;48.764;9.174;2023-04-22T04:26:56;12.70;99.90
674;DHT22;319;48.764;9.174;2023-04-22T04:29:23;12.70;99.90
674;DHT22;319;48.764;9.174;2023-04-22T04:31:51;12.70;99.90
674;DHT22;319;48.764;9.174;2023-04-22T04:34:19;12.70;99.90
674;DHT22;319;48.764;9.174;2023-04-22T04:36:47;12.70;99.90
674;DHT22;319;48.764;9.174;2023-04-22T04:39:14;12.70;99.90
674;DHT22;319;48.764;9.174;2023-04-22T04:41:43;12.70;99.90
674;DHT22;319;48.764;9.174;2023-04-22T04:44:10;12.70;99.90
674;DHT22;319;48.764;9.174;2023-04-22T04:46:37;12.80;99.90
674;DHT22;319;48.764;9.174;2023-04-22T04:49:06;12.80;99.90
674;DHT22;319;48.764;9.174;2023-04-22T04:51:35;12.80;99.90
674;DHT22;319;48.764;9.174;2023-04-22T04:54:02;12.80;99.90
674;DHT22;319;48.764;9.174;2023-04-22T04:56:29;12.80;99.90
674;DHT22;319;48.764;9.174;2023-04-22T04:58:56;12.90;99.90
674;DHT22;319;48.764;9.174;2023-04-22T05:01:23;12.90;99.90
674;DHT22;319;48.764;9.174;2023-04-22T05:03:50;12.90;99.90
674;DHT22;319;48.764;9.174;2023-04-22T05:06:17;13.00;99.90
674;DHT22;319;48.764;9.174;2023-04-22T05:08:45;13.00;99.90
674;DHT22;319;48.764;9.174;2023-04-22T05:11:12;13.00;99.90
674;DHT22;319;48.764;9.174;2023-04-22T05:13:39;13.10;99.90
674;DHT22;319;48.764;9.174;2023-04-22T05:16:06;13.20;99.90
674;DHT22;319;48.764;9.174;2023-04-22T05:18:32;13.20;99.90
674;DHT22;319;48.764;9.174;2023-04-22T05:20:59;13.20;99.90
674;DHT22;319;48.764;9.174;2023-04-22T05:23:28;13.30;99.90
674;DHT22;319;48.764;9.174;2023-04-22T05:25:57;13.20;99.90
674;DHT22;319;48.764;9.174;2023-04-22T05:28:24;13.20;99.90
674;DHT22;319;48.764;9.174;2023-04-22T05:30:51;13.20;99.90
674;DHT22;319;48.764;9.174;2023-04-22T05:33:18;13.20;99.90
674;DHT22;319;48.764;9.174;2023-04-22T05:35:44;13.30;99.90
674;DHT22;319;48.764;9.174;2023-04-22T05:38:11;13.40;99.90
674;DHT22;319;48.764;9.174;2023-04-22T05:40:38;13.50;99.90
674;DHT22;319;48.764;9.174;2023-04-22T05:43:07;13.50;99.90
674;DHT22;319;48.764;9.174;2023-04-22T05:45:34;13.60;99.90
674;DHT22;319;48.764;9.174;2023-04-22T05:48:01;13.70;99.90
674;DHT22;319;48.764;9.174;2023-04-22T05:50:28;13.80;99.90
674;DHT22;319;48.764;9.174;2023-04-22T05:52:55;13.90;99.90
674;DHT22;319;48.764;9.174;2023-04-22T05:55:22;13.90;99.90
674;DHT22;319;48.764;9.174;2023-04-22T05:57:49;14.00;99.90
674;DHT22;319;48.764;9.174;2023-04-22T06:00:20;14.10;99.90
674;DHT22;319;48.764;9.174;2023-04-22T06:02:52;14.30;99.90
674;DHT22;319;48.764;9.174;2023-04-22T06:05:24;14.50;99.90
674;DHT22;319;48.764;9.174;2023-04-22T06:07:54;14.70;99.90
674;DHT22;319;48.764;9.174;2023-04-22T06:10:24;14.90;99.90
674;DHT22;319;48.764;9.174;2023-04-22T06:12:57;15.00;99.90
674;DHT22;319;48.764;9.174;2023-04-22T06:15:31;15.20;99.50
674;DHT22;319;48.764;9.174;2023-04-22T06:18:03;15.40;98.60
674;DHT22;319;48.764;9.174;2023-04-22T06:20:34;15.60;98.30
674;DHT22;319;48.764;9.174;2023-04-22T06:23:04;15.80;98.00
674;DHT22;319;48.764;9.174;2023-04-22T06:25:37;16.10;97.50
674;DHT22;319;48.764;9.174;2023-04-22T06:28:22;16.30;96.90
674;DHT22;319;48.764;9.174;2023-04-22T06:31:01;16.70;96.70
674;DHT22;319;48.764;9.174;2023-04-22T06:33:39;17.00;96.10
674;DHT22;319;48.764;9.174;2023-04-22T06:36:15;17.30;95.50
674;DHT22;319;48.764;9.174;2023-04-22T06:38:45;17.50;95.20
674;DHT22;319;48.764;9.174;2023-04-22T06:41:15;17.80;94.50
674;DHT22;319;48.764;9.174;2023-04-22T06:43:44;18.00;93.90
674;DHT22;319;48.764;9.174;2023-04-22T06:46:24;18.30;93.40
674;DHT22;319;48.764;9.174;2023-04-22T06:49:05;18.40;92.80
674;DHT22;319;48.764;9.174;2023-04-22T06:51:35;18.40;92.70
674;DHT22;319;48.764;9.174;2023-04-22T06:54:16;18.40;92.50
674;DHT22;319;48.764;9.174;2023-04-22T06:56:43;18.40;92.80
674;DHT22;319;48.764;9.174;2023-04-22T06:59:10;18.50;92.60
674;DHT22;319;48.764;9.174;2023-04-22T07:01:43;18.60;92.40
674;DHT22;319;48.764;9.174;2023-04-22T07:04:14;18.60;92.40
674;DHT22;319;48.764;9.174;2023-04-22T07:06:49;18.60;92.60
674;DHT22;319;48.764;9.174;2023-04-22T07:09:16;18.70;92.70
674;DHT22;319;48.764;9.174;2023-04-22T07:11:43;18.80;92.60
674;DHT22;319;48.764;9.174;2023-04-22T07:14:10;19.00;92.60
674;DHT22;319;48.764;9.174;2023-04-22T07:16:45;19.20;92.40
674;DHT22;319;48.764;9.174;2023-04-22T07:19:12;19.40;92.00
674;DHT22;319;48.764;9.174;2023-04-22T07:21:42;19.60;91.80
674;DHT22;319;48.764;9.174;2023-04-22T07:24:09;19.70;91.50
674;DHT22;319;48.764;9.174;2023-04-22T07:26:50;19.50;91.10
674;DHT22;319;48.764;9.174;2023-04-22T07:29:17;19.70;90.90
674;DHT22;319;48.764;9.174;2023-04-22T07:31:46;19.50;90.10
674;DHT22;319;48.764;9.174;2023-04-22T07:34:13;19.50;90.20
674;DHT22;319;48.764;9.174;2023-04-22T07:36:40;19.50;90.40
674;DHT22;319;48.764;9.174;2023-04-22T07:39:07;19.70;90.30
674;DHT22;319;48.764;9.174;2023-04-22T07:41:34;20.10;90.20
674;DHT22;319;48.764;9.174;2023-04-22T07:44:01;20.40;89.20
674;DHT22;319;48.764;9.174;2023-04-22T07:46:28;20.90;88.30
674;DHT22;319;48.764;9.174;2023-04-22T07:48:57;21.20;87.10
674;DHT22;319;48.764;9.174;2023-04-22T07:51:24;21.30;86.20
674;DHT22;319;48.764;9.174;2023-04-22T07:53:51;21.30;85.20
674;DHT22;319;48.764;9.174;2023-04-22T07:56:18;20.80;85.50
674;DHT22;319;48.764;9.174;2023-04-22T07:58:45;20.70;86.50
674;DHT22;319;48.764;9.174;2023-04-22T08:01:12;20.50;86.70
674;DHT22;319;48.764;9.174;2023-04-22T08:03:39;20.30;88.20
674;DHT22;319;48.764;9.174;2023-04-22T08:06:08;20.40;88.40
674;DHT22;319;48.764;9.174;2023-04-22T08:08:38;20.30;88.30
674;DHT22;319;48.764;9.174;2023-04-22T08:11:17;20.40;88.60
674;DHT22;319;48.764;9.174;2023-04-22T08:13:44;20.30;88.70
674;DHT22;319;48.764;9.174;2023-04-22T08:16:13;20.30;87.90
674;DHT22;319;48.764;9.174;2023-04-22T08:18:41;20.20;87.50
674;DHT22;319;48.764;9.174;2023-04-22T08:21:09;20.00;87.90
674;DHT22;319;48.764;9.174;2023-04-22T08:23:37;20.30;88.30
674;DHT22;319;48.764;9.174;2023-04-22T08:26:07;20.30;87.60
674;DHT22;319;48.764;9.174;2023-04-22T08:28:36;20.30;86.50
674;DHT22;319;48.764;9.174;2023-04-22T08:31:03;20.30;85.50
674;DHT22;319;48.764;9.174;2023-04-22T08:33:31;20.60;85.80
674;DHT22;319;48.764;9.174;2023-04-22T08:35:58;21.40;84.50
674;DHT22;319;48.764;9.174;2023-04-22T08:38:26;22.60;82.50
674;DHT22;319;48.764;9.174;2023-04-22T08:40:55;23.50;78.40
674;DHT22;319;48.764;9.174;2023-04-22T08:43:24;24.10;75.80
674;DHT22;319;48.764;9.174;2023-04-22T08:45:52;24.00;72.90
674;DHT22;319;48.764;9.174;2023-04-22T08:48:19;25.20;72.60
674;DHT22;319;48.764;9.174;2023-04-22T08:50:46;25.50;66.40
674;DHT22;319;48.764;9.174;2023-04-22T08:53:13;25.60;64.80
674;DHT22;319;48.764;9.174;2023-04-22T08:55:43;25.20;63.90
674;DHT22;319;48.764;9.174;2023-04-22T08:58:11;25.30;64.60
674;DHT22;319;48.764;9.174;2023-04-22T09:00:41;25.00;64.50
674;DHT22;319;48.764;9.174;2023-04-22T09:03:09;25.10;64.60
674;DHT22;319;48.764;9.174;2023-04-22T09:05:38;25.00;64.20
674;DHT22;319;48.764;9.174;2023-04-22T09:08:06;25.20;62.70
674;DHT22;319;48.764;9.174;2023-04-22T09:10:35;24.90;61.50
674;DHT22;319;48.764;9.174;2023-04-22T09:13:07;25.10;60.50
674;DHT22;319;48.764;9.174;2023-04-22T09:15:34;25.40;59.90
674;DHT22;319;48.764;9.174;2023-04-22T09:18:01;25.20;60.20
674;DHT22;319;48.764;9.174;2023-04-22T09:20:31;25.20;60.70
674;DHT22;319;48.764;9.174;2023-04-22T09:23:02;25.10;61.20
674;DHT22;319;48.764;9.174;2023-04-22T09:25:31;24.80;60.00
674;DHT22;319;48.764;9.174;2023-04-22T09:27:58;24.50;61.20
674;DHT22;319;48.764;9.174;2023-04-22T09:30:28;24.10;62.10
674;DHT22;319;48.764;9.174;2023-04-22T09:32:57;24.00;63.00
674;DHT22;319;48.764;9.174;2023-04-22T09:35:28;24.10;63.00
674;DHT22;319;48.764;9.174;2023-04-22T09:37:56;24.30;62.90
674;DHT22;319;48.764;9.174;2023-04-22T09:40:24;24.20;63.20
674;DHT22;319;48.764;9.174;2023-04-22T09:42:53;23.70;63.70
674;DHT22;319;48.764;9.174;2023-04-22T09:45:29;23.50;64.30
674;DHT22;319;48.764;9.174;2023-04-22T09:48:02;23.60;65.00
674;DHT22;319;48.764;9.174;2023-04-22T09:50:29;23.50;64.90
674;DHT22;319;48.764;9.174;2023-04-22T09:53:04;23.40;64.70
674;DHT22;319;48.764;9.174;2023-04-22T09:55:36;23.20;64.30
674;DHT22;319;48.764;9.174;2023-04-22T09:58:08;23.10;65.10
674;DHT22;319;48.764;9.174;2023-04-22T10:00:40;23.10;66.00
674;DHT22;319;48.764;9.174;2023-04-22T10:03:07;23.00;66.40
674;DHT22;319;48.764;9.174;2023-04-22T10:05:34;23.10;66.40
674;DHT22;319;48.764;9.174;2023-04-22T10:08:03;23.20;65.10
674;DHT22;319;48.764;9.174;2023-04-22T10:10:30;23.30;65.60
674;DHT22;319;48.764;9.174;2023-04-22T10:12:59;23.50;65.60
674;DHT22;319;48.764;9.174;2023-04-22T10:15:31;23.70;64.10
674;DHT22;319;48.764;9.174;2023-04-22T10:18:01;23.80;62.40
674;DHT22;319;48.764;9.174;2023-04-22T10:20:29;23.90;62.00
674;DHT22;319;48.764;9.174;2023-04-22T10:22:57;24.00;59.80
674;DHT22;319;48.764;9.174;2023-04-22T10:25:25;24.00;59.00
674;DHT22;319;48.764;9.174;2023-04-22T10:27:53;24.10;58.80
674;DHT22;319;48.764;9.174;2023-04-22T10:30:26;24.20;58.30
674;DHT22;319;48.764;9.174;2023-04-22T10:32:54;24.30;57.70
674;DHT22;319;48.764;9.174;2023-04-22T10:35:27;24.50;59.20
674;DHT22;319;48.764;9.174;2023-04-22T10:37:54;24.70;56.90
674;DHT22;319;48.764;9.174;2023-04-22T10:40:21;24.80;56.90
674;DHT22;319;48.764;9.174;2023-04-22T10:42:52;24.80;57.30
674;DHT22;319;48.764;9.174;2023-04-22T10:45:24;24.80;57.10
674;DHT22;319;48.764;9.174;2023-04-22T10:47:51;24.70;55.70
674;DHT22;319;48.764;9.174;2023-04-22T10:50:21;24.50;53.90
674;DHT22;319;48.764;9.174;2023-04-22T10:52:54;24.50;51.10
674;DHT22;319;48.764;9.174;2023-04-22T10:55:22;24.60;52.10
674;DHT22;319;48.764;9.174;2023-04-22T10:57:50;24.60;53.10
674;DHT22;319;48.764;9.174;2023-04-22T11:00:37;24.50;52.80
674;DHT22;319;48.764;9.174;2023-04-22T11:03:15;24.50;52.40
674;DHT22;319;48.764;9.174;2023-04-22T11:05:42;24.50;50.80
674;DHT22;319;48.764;9.174;2023-04-22T11:08:20;24.50;51.30
674;DHT22;319;48.764;9.174;2023-04-22T11:10:49;24.50;52.70
674;DHT22;319;48.764;9.174;2023-04-22T11:13:17;24.60;53.10
674;DHT22;319;48.764;9.174;2023-04-22T11:15:48;24.70;53.60
674;DHT22;319;48.764;9.174;2023-04-22T11:18:18;24.80;52.60
674;DHT22;319;48.764;9.174;2023-04-22T11:20:46;24.80;53.50
674;DHT22;319;48.764;9.174;2023-04-22T11:23:17;24.80;52.90
674;DHT22;319;48.764;9.174;2023-04-22T11:25:46;24.70;51.40
674;DHT22;319;48.764;9.174;2023-04-22T11:28:12;24.70;52.30
674;DHT22;319;48.764;9.174;2023-04-22T11:30:39;24.90;51.70
674;DHT22;319;48.764;9.174;2023-04-22T11:33:06;24.90;51.50
674;DHT22;319;48.764;9.174;2023-04-22T11:35:34;25.10;49.90
674;DHT22;319;48.764;9.174;2023-04-22T11:38:03;25.20;48.50
674;DHT22;319;48.764;9.174;2023-04-22T11:40:31;25.30;48.30
674;DHT22;319;48.764;9.174;2023-04-22T11:43:01;25.20;49.30
674;DHT22;319;48.764;9.174;2023-04-22T11:45:29;25.30;48.30
674;DHT22;319;48.764;9.174;2023-04-22T11:47:57;25.50;47.90
674;DHT22;319;48.764;9.174;2023-04-22T11:50:25;25.50;47.10
674;DHT22;319;48.764;9.174;2023-04-22T11:52:54;25.50;46.70
674;DHT22;319;48.764;9.174;2023-04-22T11:55:23;25.50;46.60
674;DHT22;319;48.764;9.174;2023-04-22T11:57:54;25.20;46.60
674;DHT22;319;48.764;9.174;2023-04-22T12:00:23;25.30;47.20
674;DHT22;319;48.764;9.174;2023-04-22T12:02:58;25.50;47.40
674;DHT22;319;48.764;9.174;2023-04-22T12:05:37;25.30;46.70
674;DHT22;319;48.764;9.174;2023-04-22T12:08:08;25.40;47.70
674;DHT22;319;48.764;9.174;2023-04-22T12:10:41;25.50;47.60
674;DHT22;319;48.764;9.174;2023-04-22T12:13:09;25.50;47.40
674;DHT22;319;48.764;9.174;2023-04-22T12:15:39;25.30;47.80
674;DHT22;319;48.764;9.174;2023-04-22T12:18:10;25.40;48.10
674;DHT22;319;48.764;9.174;2023-04-22T12:20:38;25.60;48.70
674;DHT22;319;48.764;9.174;2023-04-22T12:23:11;25.90;48.50
674;DHT22;319;48.764;9.174;2023-04-22T12:25:38;25.90;47.80
674;DHT22;319;48.764;9.174;2023-04-22T12:28:05;25.90;48.20
674;DHT22;319;48.764;9.174;2023-04-22T12:30:32;25.80;48.50
674;DHT22;319;48.764;9.174;2023-04-22T12:33:01;25.70;48.20
674;DHT22;319;48.764;9.174;2023-04-22T12:35:28;25.70;48.20
674;DHT22;319;48.764;9.174;2023-04-22T12:37:55;25.60;48.40
674;DHT22;319;48.764;9.174;2023-04-22T12:40:22;25.60;49.20
674;DHT22;319;48.764;9.174;2023-04-22T12:42:49;25.70;48.70
674;DHT22;319;48.764;9.174;2023-04-22T12:45:16;25.70;48.70
674;DHT22;319;48.764;9.174;2023-04-22T12:47:42;25.70;48.00
674;DHT22;319;48.764;9.174;2023-04-22T12:50:12;25.80;48.10
674;DHT22;319;48.764;9.174;2023-04-22T12:52:39;25.90;48.00
674;DHT22;319;48.764;9.174;2023-04-22T12:55:07;25.90;47.30
674;DHT22;319;48.764;9.174;2023-04-22T12:57:34;25.80;47.20
674;DHT22;319;48.764;9.174;2023-04-22T13:00:05;25.90;46.70
674;DHT22;319;48.764;9.174;2023-04-22T13:02:39;26.10;46.10
674;DHT22;319;48.764;9.174;2023-04-22T13:05:06;26.20;46.20
674;DHT22;319;48.764;9.174;2023-04-22T13:07:35;26.30;45.90
674;DHT22;319;48.764;9.174;2023-04-22T13:10:02;26.40;45.10
674;DHT22;319;48.764;9.174;2023-04-22T13:12:29;26.50;45.70
674;DHT22;319;48.764;9.174;2023-04-22T13:14:56;26.40;45.50
674;DHT22;319;48.764;9.174;2023-04-22T13:17:23;26.20;45.40
674;DHT22;319;48.764;9.174;2023-04-22T13:19:50;26.10;45.50
674;DHT22;319;48.764;9.174;2023-04-22T13:22:17;26.10;45.90
674;DHT22;319;48.764;9.174;2023-04-22T13:24:45;26.00;45.60
674;DHT22;319;48.764;9.174;2023-04-22T13:27:12;25.90;45.70
674;DHT22;319;48.764;9.174;2023-04-22T13:29:39;25.70;45.50
674;DHT22;319;48.764;9.174;2023-04-22T13:32:07;25.50;45.70
674;DHT22;319;48.764;9.174;2023-04-22T13:34:35;25.40;45.90
674;DHT22;319;48.764;9.174;2023-04-22T13:37:02;25.30;46.30
674;DHT22;319;48.764;9.174;2023-04-22T13:39:31;25.10;46.30
674;DHT22;319;48.764;9.174;2023-04-22T13:42:00;25.20;46.80
674;DHT22;319;48.764;9.174;2023-04-22T13:44:27;25.30;46.80
674;DHT22;319;48.764;9.174;2023-04-22T13:46:54;25.20;46.90
674;DHT22;319;48.764;9.174;2023-04-22T13:49:21;25.20;47.10
674;DHT22;319;48.764;9.174;2023-04-22T13:51:48;25.10;47.10
674;DHT22;319;48.764;9.174;2023-04-22T13:54:15;25.10;46.80
674;DHT22;319;48.764;9.174;2023-04-22T13:56:42;25.00;47.00
674;DHT22;319;48.764;9.174;2023-04-22T13:59:10;25.00;47.20
674;DHT22;319;48.764;9.174;2023-04-22T14:01:37;25.20;47.30
674;DHT22;319;48.764;9.174;2023-04-22T14:04:04;25.30;47.90
674;DHT22;319;48.764;9.174;2023-04-22T14:06:31;25.50;47.20
674;DHT22;319;48.764;9.174;2023-04-22T14:08:58;25.40;46.50
674;DHT22;319;48.764;9.174;2023-04-22T14:11:25;25.50;46.80
674;DHT22;319;48.764;9.174;2023-04-22T14:13:52;25.60;46.60
674;DHT22;319;48.764;9.174;2023-04-22T14:16:20;25.50;46.40
674;DHT22;319;48.764;9.174;2023-04-22T14:18:47;25.40;46.50
674;DHT22;319;48.764;9.174;2023-04-22T14:21:15;25.20;46.80
674;DHT22;319;48.764;9.174;2023-04-22T14:23:42;25.20;47.10
674;DHT22;319;48.764;9.174;2023-04-22T14:26:10;24.90;47.60
674;DHT22;319;48.764;9.174;2023-04-22T14:28:40;24.60;47.70
674;DHT22;319;48.764;9.174;2023-04-22T14:31:07;24.50;48.00
674;DHT22;319;48.764;9.174;2023-04-22T14:33:36;24.40;48.50
674;DHT22;319;48.764;9.174;2023-04-22T14:36:03;24.40;48.60
674;DHT22;319;48.764;9.174;2023-04-22T14:38:30;24.30;48.90
674;DHT22;319;48.764;9.174;2023-04-22T14:40:57;24.20;49.10
674;DHT22;319;48.764;9.174;2023-04-22T14:43:24;24.30;49.00
674;DHT22;319;48.764;9.174;2023-04-22T14:45:51;24.20;49.20
674;DHT22;319;48.764;9.174;2023-04-22T14:48:18;24.10;49.50
674;DHT22;319;48.764;9.174;2023-04-22T14:50:46;23.90;49.60
674;DHT22;319;48.764;9.174;2023-04-22T14:53:13;23.90;49.90
674;DHT22;319;48.764;9.174;2023-04-22T14:55:40;24.00;50.20
674;DHT22;319;48.764;9.174;2023-04-22T14:58:06;24.10;50.40
674;DHT22;319;48.764;9.174;2023-04-22T15:00:33;24.30;50.50
674;DHT22;319;48.764;9.174;2023-04-22T15:03:00;24.40;50.40
674;DHT22;319;48.764;9.174;2023-04-22T15:05:27;24.50;51.30
674;DHT22;319;48.764;9.174;2023-04-22T15:07:55;24.60;50.50
674;DHT22;319;48.764;9.174;2023-04-22T15:10:23;24.50;50.20
674;DHT22;319;48.764;9.174;2023-04-22T15:12:51;24.50;50.40
674;DHT22;319;48.764;9.174;2023-04-22T15:15:18;24.40;50.60
674;DHT22;319;48.764;9.174;2023-04-22T15:17:45;24.50;51.00
674;DHT22;319;48.764;9.174;2023-04-22T15:20:12;24.50;50.80
674;DHT22;319;48.764;9.174;2023-04-22T15:22:39;24.40;51.00
674;DHT22;319;48.764;9.174;2023-04-22T15:25:09;24.30;50.90
674;DHT22;319;48.764;9.174;2023-04-22T15:27:36;24.30;51.40
674;DHT22;319;48.764;9.174;2023-04-22T15:30:05;24.20;51.60
674;DHT22;319;48.764;9.174;2023-04-22T15:32:32;24.10;51.60
674;DHT22;319;48.764;9.174;2023-04-22T15:34:59;24.10;51.70
674;DHT22;319;48.764;9.174;2023-04-22T15:37:26;24.00;51.80
674;DHT22;319;48.764;9.174;2023-04-22T15:39:53;24.10;51.90
674;DHT22;319;48.764;9.174;2023-04-22T15:42:21;24.10;51.90
674;DHT22;319;48.764;9.174;2023-04-22T15:44:48;24.00;52.10
674;DHT22;319;48.764;9.174;2023-04-22T15:47:15;23.90;52.00
674;DHT22;319;48.764;9.174;2023-04-22T15:49:42;24.00;52.30
674;DHT22;319;48.764;9.174;2023-04-22T15:52:09;24.00;52.10
674;DHT22;319;48.764;9.174;2023-04-22T15:54:36;24.00;52.50
674;DHT22;319;48.764;9.174;2023-04-22T15:57:03;24.00;52.70
674;DHT22;319;48.764;9.174;2023-04-22T15:59:31;23.90;52.50
674;DHT22;319;48.764;9.174;2023-04-22T16:01:59;23.90;52.40
674;DHT22;319;48.764;9.174;2023-04-22T16:04:40;23.90;52.40
674;DHT22;319;48.764;9.174;2023-04-22T16:07:07;23.90;52.70
674;DHT22;319;48.764;9.174;2023-04-22T16:09:34;24.00;52.70
674;DHT22;319;48.764;9.174;2023-04-22T16:12:01;24.00;52.50
674;DHT22;319;48.764;9.174;2023-04-22T16:14:28;23.90;52.60
674;DHT22;319;48.764;9.174;2023-04-22T16:16:56;23.90;52.70
674;DHT22;319;48.764;9.174;2023-04-22T16:19:23;23.90;52.70
674;DHT22;319;48.764;9.174;2023-04-22T16:21:50;23.80;53.40
674;DHT22;319;48.764;9.174;2023-04-22T16:24:17;23.70;53.20
674;DHT22;319;48.764;9.174;2023-04-22T16:26:44;23.60;53.40
674;DHT22;319;48.764;9.174;2023-04-22T16:29:11;23.50;53.50
674;DHT22;319;48.764;9.174;2023-04-22T16:31:38;23.50;53.90
674;DHT22;319;48.764;9.174;2023-04-22T16:34:06;23.40;54.20
674;DHT22;319;48.764;9.174;2023-04-22T16:36:33;23.30;54.20
674;DHT22;319;48.764;9.174;2023-04-22T16:39:00;23.30;54.30
674;DHT22;319;48.764;9.174;2023-04-22T16:41:27;23.20;54.20